»·PEaware :: N104KN KPHX-KSEZ

N104KN :: KPHX-KSEZ

FLIGHT INFORMATION

Flight Status: Arrived
Operator: Privately registered:
United States
More flights under this callsign
Pilot: Jesse M. (22378)
Aircraft: Unknown
(B407)
More flights by this aircraft type
Origin: KPHX Phoenix Sky Harbor Intl
United States
Destination: KSEZ Sedona
United States
More flights between these airports :: More routes between these airports
Route: KNOBB V327 ZABUS
File this flight plan on PilotEdge
Remarks: 104TH_KNIGHT / YOUTUBE
Altitude:
(Current/Filed)
13,000ft
Speed:
(Current/Filed)
130kts
Departed: 08-Jan-19 02:22 PM
Arrived: 08-Jan-19 03:06 PM
Distance/Time
Traveled:
85nm/0:44
Distance/Time
To Go:
Arrived

Flight Plot

Page will automatically refresh every two minutes.

Flight plan parsing failed; only flown route is shown


Map Options




Map Legend


Flown Route
Filed Route
Departure Airport
Arrival Airport
Navaid (VOR, NDB)
Fix

Horizontal Profiles

Position Reports

Time Latitude Longitude Heading Altitude Ground
Speed
08-Jan-19 13:23 33.425713 -112.019615 270 1135ft 0kts
08-Jan-19 13:24 33.425713 -112.019615 270 1135ft 0kts
08-Jan-19 13:25 33.425713 -112.019615 270 1135ft 0kts
08-Jan-19 13:26 33.425713 -112.019615 270 1135ft 0kts
08-Jan-19 13:27 33.425713 -112.019615 270 1135ft 0kts
08-Jan-19 13:28 33.425713 -112.019615 270 1135ft 0kts
08-Jan-19 13:29 33.425713 -112.019615 270 1135ft 0kts
08-Jan-19 13:30 33.425713 -112.019615 270 1135ft 0kts
08-Jan-19 13:31 33.425713 -112.019615 270 1135ft 0kts
08-Jan-19 13:32 33.425713 -112.019615 270 1135ft 0kts
08-Jan-19 13:33 33.425713 -112.019615 270 1135ft 0kts
08-Jan-19 13:34 33.425713 -112.019615 270 1135ft 0kts
08-Jan-19 13:36 33.425713 -112.019615 270 1135ft 0kts
08-Jan-19 13:37 33.425713 -112.019615 270 1135ft 0kts
08-Jan-19 13:38 33.425713 -112.019615 270 1135ft 0kts
08-Jan-19 13:39 33.425713 -112.019615 270 1135ft 0kts
08-Jan-19 13:40 33.425713 -112.019615 270 1135ft 0kts
08-Jan-19 13:44 33.425713 -112.019615 270 1135ft 0kts
08-Jan-19 13:45 33.425713 -112.019615 270 1135ft 0kts
08-Jan-19 13:46 33.425713 -112.019615 270 1135ft 0kts
08-Jan-19 13:47 33.425713 -112.019615 270 1135ft 0kts
08-Jan-19 13:48 33.425713 -112.019615 270 1135ft 0kts
08-Jan-19 13:49 33.425713 -112.019615 270 1135ft 0kts
08-Jan-19 13:50 33.425713 -112.019615 270 1135ft 0kts
08-Jan-19 13:51 33.425713 -112.019615 270 1135ft 0kts
08-Jan-19 13:52 33.425713 -112.019615 270 1135ft 0kts
08-Jan-19 13:58 33.425713 -112.019615 270 1135ft 0kts
08-Jan-19 13:59 33.425713 -112.019615 270 1135ft 0kts
08-Jan-19 14:00 33.425713 -112.019615 270 1135ft 0kts
08-Jan-19 14:01 33.425713 -112.019615 270 1135ft 0kts
08-Jan-19 14:02 33.425713 -112.019615 270 1135ft 0kts
08-Jan-19 14:03 33.425713 -112.019615 270 1135ft 0kts
08-Jan-19 14:04 33.425713 -112.019615 270 1135ft 0kts
08-Jan-19 14:05 33.425713 -112.019615 270 1135ft 0kts
08-Jan-19 14:06 33.425713 -112.019615 270 1135ft 0kts
08-Jan-19 14:07 33.425713 -112.019615 270 1135ft 0kts
08-Jan-19 14:08 33.425713 -112.019615 270 1135ft 0kts
08-Jan-19 14:09 33.425713 -112.019615 270 1135ft 0kts
08-Jan-19 14:10 33.425713 -112.019615 270 1135ft 0kts
08-Jan-19 14:11 33.425713 -112.019615 270 1135ft 0kts
08-Jan-19 14:12 33.425713 -112.019615 270 1135ft 0kts
08-Jan-19 14:13 33.425713 -112.019615 270 1135ft 0kts
08-Jan-19 14:14 33.425713 -112.019615 270 1135ft 0kts
08-Jan-19 14:15 33.425713 -112.019615 270 1135ft 0kts
08-Jan-19 14:16 33.427141 -112.020736 303 1136ft 6kts
08-Jan-19 14:17 33.427740 -112.022909 271 1149ft 14kts
08-Jan-19 14:18 33.427861 -112.026843 353 1137ft 0kts
08-Jan-19 14:19 33.427872 -112.026838 346 1135ft 0kts
08-Jan-19 14:20 33.428871 -112.026625 109 1150ft 10kts
08-Jan-19 14:21 33.428423 -111.996391 91 1300ft 142kts
08-Jan-19 14:22 33.426363 -111.951291 95 1736ft 132kts
08-Jan-19 14:23 33.447140 -111.922424 357 2141ft 133kts
08-Jan-19 14:24 33.484834 -111.925045 353 2371ft 137kts
08-Jan-19 14:25 33.521778 -111.932747 348 2679ft 134kts
08-Jan-19 14:26 33.558160 -111.937128 355 3282ft 129kts
08-Jan-19 14:27 33.593811 -111.938463 356 4016ft 136kts
08-Jan-19 14:28 33.631673 -111.936293 3 3918ft 132kts
08-Jan-19 14:29 33.666880 -111.930417 13 4756ft 121kts
08-Jan-19 14:30 33.698011 -111.914847 38 5807ft 126kts
08-Jan-19 14:31 33.727063 -111.899006 8 7199ft 119kts
08-Jan-19 14:32 33.759895 -111.889708 15 8430ft 126kts
08-Jan-19 14:33 33.794417 -111.872507 29 8226ft 141kts
08-Jan-19 14:34 33.826054 -111.850276 7 8103ft 136kts
08-Jan-19 14:35 33.862681 -111.840783 19 7800ft 138kts
08-Jan-19 14:36 33.897386 -111.829655 5 7603ft 125kts
08-Jan-19 14:37 33.932249 -111.826203 5 7564ft 125kts
08-Jan-19 14:38 33.967512 -111.824089 2 7465ft 129kts
08-Jan-19 14:39 34.002796 -111.823654 352 7437ft 128kts
08-Jan-19 14:40 34.038204 -111.824842 5 7405ft 124kts
08-Jan-19 14:41 34.072782 -111.817384 11 7368ft 128kts
08-Jan-19 14:42 34.107902 -111.808870 11 7263ft 129kts
08-Jan-19 14:43 34.143208 -111.800649 9 7276ft 130kts
08-Jan-19 14:44 34.178785 -111.792813 12 7279ft 131kts
08-Jan-19 14:45 34.215231 -111.786770 1 7473ft 134kts
08-Jan-19 14:46 34.250845 -111.785066 11 7516ft 123kts
08-Jan-19 14:47 34.284956 -111.778851 11 7524ft 124kts
08-Jan-19 14:48 34.319679 -111.778607 358 7532ft 125kts
08-Jan-19 14:49 34.355102 -111.780078 9 7051ft 127kts
08-Jan-19 14:50 34.388603 -111.773137 15 6659ft 119kts
08-Jan-19 14:51 34.421624 -111.770384 4 6151ft 122kts
08-Jan-19 14:52 34.454854 -111.764852 13 5497ft 118kts
08-Jan-19 14:53 34.487676 -111.758600 15 5436ft 126kts
08-Jan-19 14:54 34.522466 -111.755634 2 5462ft 124kts
08-Jan-19 14:55 34.556411 -111.758255 1 5575ft 123kts
08-Jan-19 14:56 34.590786 -111.759803 3 5606ft 123kts
08-Jan-19 14:57 34.623842 -111.756586 14 5961ft 117kts
08-Jan-19 14:58 34.657017 -111.754100 358 6097ft 121kts
08-Jan-19 14:59 34.688530 -111.768220 338 6408ft 124kts
08-Jan-19 15:00 34.719365 -111.789257 332 6317ft 127kts
08-Jan-19 15:01 34.749547 -111.811048 342 6109ft 128kts
08-Jan-19 15:02 34.783136 -111.818756 6 5902ft 116kts
08-Jan-19 15:04 34.813981 -111.818145 2 5795ft 105kts
08-Jan-19 15:05 34.835856 -111.806174 48 5199ft 67kts
08-Jan-19 15:06 34.845691 -111.794108 44 4861ft 19kts
08-Jan-19 15:07 34.846965 -111.792524 56 4761ft 1kts
08-Jan-19 15:08 34.847460 -111.792333 171 4767ft 6kts
08-Jan-19 15:09 34.847352 -111.792309 53 4756ft 0kts
08-Jan-19 15:10 34.847351 -111.792309 48 4756ft 0kts
08-Jan-19 15:11 34.847351 -111.792309 48 4756ft 0kts
08-Jan-19 15:12 34.847351 -111.792309 49 4756ft 0kts

Navigation Log

Ident Type
Flight plan parsing failed, navigation log unavailable